createdAt,value
2023-05-19T00:00:28.564Z,7.68
2023-05-19T00:02:55.391Z,7.69
2023-05-19T00:05:22.208Z,7.69
2023-05-19T00:07:52.001Z,7.69
2023-05-19T00:10:18.956Z,7.69
2023-05-19T00:12:45.919Z,7.70
2023-05-19T00:15:13.248Z,7.71
2023-05-19T00:17:39.789Z,7.73
2023-05-19T00:20:07.157Z,7.71
2023-05-19T00:22:33.967Z,7.70
2023-05-19T00:25:00.438Z,7.71
2023-05-19T00:27:26.946Z,7.71
2023-05-19T00:29:53.471Z,7.73
2023-05-19T00:32:20.020Z,7.75
2023-05-19T00:34:46.478Z,7.75
2023-05-19T00:37:13.172Z,7.76
2023-05-19T00:39:39.721Z,7.75
2023-05-19T00:42:06.248Z,7.76
2023-05-19T00:44:32.751Z,7.77
2023-05-19T00:46:59.504Z,7.76
2023-05-19T00:49:26.071Z,7.75
2023-05-19T00:51:53.071Z,7.74
2023-05-19T00:54:20.699Z,7.74
2023-05-19T00:56:47.468Z,7.75
2023-05-19T00:59:14.207Z,7.74
2023-05-19T01:01:40.872Z,7.73
2023-05-19T01:04:07.650Z,7.73
2023-05-19T01:06:34.756Z,7.72
2023-05-19T01:09:01.291Z,7.70
2023-05-19T01:11:27.844Z,7.69
2023-05-19T01:13:55.122Z,7.68
2023-05-19T01:16:27.520Z,7.68
2023-05-19T01:18:54.018Z,7.68
2023-05-19T01:21:32.798Z,7.67
2023-05-19T01:24:06.215Z,7.67
2023-05-19T01:26:32.908Z,7.68
2023-05-19T01:29:26.919Z,7.67
2023-05-19T01:31:59.240Z,7.65
2023-05-19T01:34:27.143Z,7.65
2023-05-19T01:36:55.754Z,7.65
2023-05-19T01:39:23.457Z,7.66
2023-05-19T01:41:52.367Z,7.67
2023-05-19T01:44:19.963Z,7.67
2023-05-19T01:46:47.465Z,7.67
2023-05-19T01:49:14.443Z,7.67
2023-05-19T01:51:41.699Z,7.65
2023-05-19T01:54:08.362Z,7.66
2023-05-19T01:57:10.946Z,7.65
2023-05-19T01:59:48.164Z,7.64
2023-05-19T02:02:40.654Z,7.64
2023-05-19T02:05:13.824Z,7.64
2023-05-19T02:07:48.791Z,7.64
2023-05-19T02:10:22.751Z,7.66
2023-05-19T02:12:53.962Z,7.66
2023-05-19T02:15:32.060Z,7.65
2023-05-19T02:17:59.952Z,7.65
2023-05-19T02:20:26.580Z,7.64
2023-05-19T02:22:53.233Z,7.65
2023-05-19T02:25:19.919Z,7.64
2023-05-19T02:27:46.424Z,7.65
2023-05-19T02:30:13.199Z,7.67
2023-05-19T02:32:39.820Z,7.68
2023-05-19T02:35:07.275Z,7.67
2023-05-19T02:37:33.778Z,7.66
2023-05-19T02:40:00.305Z,7.67
2023-05-19T02:42:26.757Z,7.67
2023-05-19T02:44:54.826Z,7.68
2023-05-19T02:47:21.570Z,7.70
2023-05-19T02:49:48.648Z,7.73
2023-05-19T02:52:15.202Z,7.76
2023-05-19T02:54:41.726Z,7.76
2023-05-19T02:57:08.302Z,7.75
2023-05-19T02:59:34.943Z,7.75
2023-05-19T03:02:02.857Z,7.75
2023-05-19T03:04:29.958Z,7.76
2023-05-19T03:06:57.082Z,7.76
2023-05-19T03:09:23.920Z,7.77
2023-05-19T03:11:50.353Z,7.77
2023-05-19T03:14:16.851Z,7.76
2023-05-19T03:16:43.694Z,7.77
2023-05-19T03:19:10.657Z,7.76
2023-05-19T03:21:37.163Z,7.77
2023-05-19T03:24:04.252Z,7.78
2023-05-19T03:26:30.772Z,7.80
2023-05-19T03:28:57.648Z,7.81
2023-05-19T03:31:24.452Z,7.82
2023-05-19T03:33:50.941Z,7.83
2023-05-19T03:36:17.425Z,7.84
2023-05-19T03:38:43.908Z,7.87
2023-05-19T03:41:10.494Z,7.88
2023-05-19T03:43:37.040Z,7.89
2023-05-19T03:46:03.580Z,7.91
2023-05-19T03:48:30.309Z,7.94
2023-05-19T03:50:56.954Z,7.96
2023-05-19T03:53:23.844Z,8.00
2023-05-19T03:55:50.314Z,8.03
2023-05-19T03:58:17.140Z,8.05
2023-05-19T04:00:43.755Z,8.09
2023-05-19T04:03:10.397Z,8.13
2023-05-19T04:05:37.258Z,8.15
2023-05-19T04:08:04.016Z,8.17
2023-05-19T04:10:30.829Z,8.21
2023-05-19T04:12:57.719Z,8.26
2023-05-19T04:15:24.688Z,8.29
2023-05-19T04:17:51.240Z,8.33
2023-05-19T04:20:17.917Z,8.38
2023-05-19T04:22:44.587Z,8.41
2023-05-19T04:25:11.220Z,8.44
2023-05-19T04:27:37.788Z,8.47
2023-05-19T04:30:06.099Z,8.51
2023-05-19T04:32:32.753Z,8.56
2023-05-19T04:34:59.758Z,8.63
2023-05-19T04:37:26.547Z,8.73
2023-05-19T04:39:53.450Z,8.81
2023-05-19T04:42:20.197Z,8.83
2023-05-19T04:44:47.472Z,8.79
2023-05-19T04:47:13.977Z,8.75
2023-05-19T04:49:40.513Z,8.76
2023-05-19T04:52:08.725Z,8.75
2023-05-19T04:54:35.574Z,8.70
2023-05-19T04:57:02.379Z,8.63
2023-05-19T04:59:28.895Z,8.61
2023-05-19T05:01:55.954Z,8.55
2023-05-19T05:04:23.538Z,8.50
2023-05-19T05:06:50.442Z,8.48
2023-05-19T05:09:18.063Z,8.48
2023-05-19T05:11:45.101Z,8.49
2023-05-19T05:14:11.957Z,8.54
2023-05-19T05:16:39.000Z,8.56
2023-05-19T05:19:05.735Z,8.59
2023-05-19T05:21:32.646Z,8.63
2023-05-19T05:23:59.591Z,8.70
2023-05-19T05:26:30.746Z,8.75
2023-05-19T05:28:57.322Z,8.84
2023-05-19T05:31:23.811Z,8.90
2023-05-19T05:33:50.814Z,8.92
2023-05-19T05:36:17.519Z,8.90
2023-05-19T05:38:44.004Z,8.92
2023-05-19T05:41:10.708Z,8.96
2023-05-19T05:43:37.304Z,9.01
2023-05-19T05:46:03.971Z,9.06
2023-05-19T05:48:31.041Z,9.10
2023-05-19T05:50:59.301Z,9.11
2023-05-19T05:53:30.195Z,9.08
2023-05-19T05:55:57.293Z,9.07
2023-05-19T05:58:23.734Z,9.09
2023-05-19T06:00:50.579Z,9.11
2023-05-19T06:03:17.303Z,9.17
2023-05-19T06:05:44.183Z,9.28
2023-05-19T06:08:10.719Z,9.39
2023-05-19T06:10:37.389Z,9.54
2023-05-19T06:13:04.041Z,9.71
2023-05-19T06:15:30.736Z,9.91
2023-05-19T06:17:57.703Z,10.13
2023-05-19T06:20:24.312Z,10.27
2023-05-19T06:22:50.770Z,10.41
2023-05-19T06:25:17.558Z,10.47
2023-05-19T06:27:44.024Z,10.54
2023-05-19T06:30:11.160Z,10.53
2023-05-19T06:32:37.645Z,10.41
2023-05-19T06:35:04.904Z,10.29
2023-05-19T06:37:31.367Z,10.20
2023-05-19T06:39:57.900Z,10.13
2023-05-19T06:42:24.551Z,10.17
2023-05-19T06:44:52.662Z,10.22
2023-05-19T06:47:19.981Z,10.25
2023-05-19T06:49:46.642Z,10.33
2023-05-19T06:52:13.265Z,10.40
2023-05-19T06:54:39.934Z,10.46
2023-05-19T06:57:06.637Z,10.58
2023-05-19T06:59:33.103Z,10.70
2023-05-19T07:01:59.850Z,10.87
2023-05-19T07:04:26.442Z,10.95
2023-05-19T07:06:52.868Z,10.91
2023-05-19T07:09:19.508Z,10.87
2023-05-19T07:11:46.430Z,10.90
2023-05-19T07:14:12.894Z,10.95
2023-05-19T07:16:39.515Z,11.06
2023-05-19T07:19:06.161Z,11.16
2023-05-19T07:21:32.906Z,11.27
2023-05-19T07:23:59.406Z,11.42
2023-05-19T07:26:25.917Z,11.50
2023-05-19T07:28:52.684Z,11.59
2023-05-19T07:31:19.327Z,11.67
2023-05-19T07:33:45.839Z,11.68
2023-05-19T07:36:12.366Z,11.71
2023-05-19T07:38:38.938Z,11.81
2023-05-19T07:41:05.731Z,11.83
2023-05-19T07:43:32.255Z,11.75
2023-05-19T07:45:58.853Z,11.73
2023-05-19T07:48:25.439Z,11.74
2023-05-19T07:50:52.966Z,11.64
2023-05-19T07:53:20.435Z,11.56
2023-05-19T07:55:47.250Z,11.51
2023-05-19T07:58:14.120Z,11.49
2023-05-19T08:00:40.848Z,11.63
2023-05-19T08:03:07.437Z,11.71
2023-05-19T08:05:35.075Z,11.75
2023-05-19T08:08:02.243Z,11.79
2023-05-19T08:10:29.113Z,11.76
2023-05-19T08:12:55.777Z,11.75
2023-05-19T08:15:22.345Z,11.75
2023-05-19T08:17:49.090Z,11.67
2023-05-19T08:20:15.656Z,11.67
2023-05-19T08:22:42.279Z,11.73
2023-05-19T08:25:09.346Z,11.74
2023-05-19T08:27:36.012Z,11.77
2023-05-19T08:30:02.538Z,11.85
2023-05-19T08:32:29.056Z,11.89
2023-05-19T08:34:55.517Z,11.86
2023-05-19T08:37:22.255Z,11.79
2023-05-19T08:39:48.807Z,11.80
2023-05-19T08:42:15.403Z,11.76
2023-05-19T08:44:42.563Z,11.74
2023-05-19T08:47:09.738Z,11.67
2023-05-19T08:49:45.323Z,11.69
2023-05-19T08:55:04.859Z,11.80
2023-05-19T08:57:32.305Z,11.91
2023-05-19T08:59:59.358Z,12.01
2023-05-19T09:02:26.866Z,12.04
2023-05-19T09:04:53.914Z,12.11
2023-05-19T09:07:23.043Z,12.14
2023-05-19T09:09:49.548Z,12.21
2023-05-19T09:12:16.327Z,12.25
2023-05-19T09:14:43.005Z,12.21
2023-05-19T09:17:10.104Z,12.26
2023-05-19T09:19:43.148Z,12.36
2023-05-19T09:22:09.770Z,12.39
2023-05-19T09:24:36.399Z,12.40
2023-05-19T09:27:02.903Z,12.43
2023-05-19T09:29:29.707Z,12.49
2023-05-19T09:31:57.083Z,12.44
2023-05-19T09:34:23.953Z,12.34
2023-05-19T09:36:50.944Z,12.33
2023-05-19T09:39:19.654Z,12.32
2023-05-19T09:41:46.448Z,12.39
2023-05-19T09:44:35.190Z,12.46
2023-05-19T09:47:01.773Z,12.41
2023-05-19T09:49:29.937Z,12.34
2023-05-19T09:52:02.427Z,12.27
2023-05-19T09:54:30.091Z,12.20
2023-05-19T09:56:58.474Z,12.22
2023-05-19T09:59:26.524Z,12.17
2023-05-19T10:01:57.905Z,12.12
2023-05-19T10:04:28.833Z,12.12
2023-05-19T10:06:56.559Z,12.24
2023-05-19T10:09:24.657Z,12.32
2023-05-19T10:11:55.968Z,12.41
2023-05-19T10:14:24.385Z,12.39
2023-05-19T10:16:52.116Z,12.34
2023-05-19T10:19:23.470Z,12.31
2023-05-19T10:21:50.913Z,12.28
2023-05-19T10:24:18.495Z,12.30
2023-05-19T10:27:02.444Z,12.36
2023-05-19T10:29:33.445Z,12.30
2023-05-19T10:32:02.529Z,12.32
2023-05-19T10:35:03.719Z,12.30
2023-05-19T10:38:07.588Z,12.32
2023-05-19T10:40:38.941Z,12.45
2023-05-19T10:43:21.832Z,12.64
2023-05-19T10:45:51.446Z,12.86
2023-05-19T10:48:20.484Z,13.10
2023-05-19T10:50:47.752Z,13.32
2023-05-19T10:53:15.981Z,13.40
2023-05-19T10:55:46.257Z,13.36
2023-05-19T10:58:12.736Z,13.40
2023-05-19T11:00:39.991Z,13.52
2023-05-19T11:03:17.549Z,13.73
2023-05-19T11:05:44.582Z,13.81
2023-05-19T11:08:12.056Z,13.63
2023-05-19T11:10:39.467Z,13.42
2023-05-19T11:13:06.563Z,13.35
2023-05-19T11:15:36.657Z,13.27
2023-05-19T11:18:04.533Z,13.18
2023-05-19T11:20:31.366Z,13.22
2023-05-19T11:23:15.103Z,13.23
2023-05-19T11:25:50.048Z,13.02
2023-05-19T11:28:19.226Z,12.83
2023-05-19T11:30:48.403Z,12.77
2023-05-19T11:33:15.009Z,12.76
2023-05-19T11:35:43.392Z,12.88
2023-05-19T11:38:11.494Z,13.01
2023-05-19T11:40:38.448Z,13.16
2023-05-19T11:43:04.955Z,13.47
2023-05-19T11:45:32.658Z,13.58
2023-05-19T11:48:03.080Z,13.68
2023-05-19T11:50:31.836Z,13.81
2023-05-19T11:53:00.975Z,13.94
2023-05-19T11:55:28.136Z,13.89
2023-05-19T11:58:04.943Z,13.73
2023-05-19T12:00:44.806Z,13.65
2023-05-19T12:03:11.822Z,13.55
2023-05-19T12:05:44.064Z,13.50
2023-05-19T12:08:11.923Z,13.41
2023-05-19T12:10:39.700Z,13.31
2023-05-19T12:13:06.990Z,13.38
2023-05-19T12:15:33.708Z,13.34
2023-05-19T12:18:02.166Z,13.28
2023-05-19T12:20:30.597Z,13.35
2023-05-19T12:22:58.234Z,13.38
2023-05-19T12:25:25.428Z,13.34
2023-05-19T12:27:51.981Z,13.36
2023-05-19T12:30:18.993Z,13.35
2023-05-19T12:32:46.474Z,13.30
2023-05-19T12:35:12.994Z,13.28
2023-05-19T12:37:42.770Z,13.22
2023-05-19T12:40:09.963Z,13.11
2023-05-19T12:42:36.685Z,13.08
2023-05-19T12:45:04.572Z,13.05
2023-05-19T12:47:33.669Z,12.98
2023-05-19T12:50:00.282Z,13.01
2023-05-19T12:52:29.370Z,13.05
2023-05-19T12:55:04.652Z,13.13
2023-05-19T12:57:31.695Z,13.16
2023-05-19T13:00:06.698Z,13.19
2023-05-19T13:02:35.215Z,13.30
2023-05-19T13:05:02.393Z,13.44
2023-05-19T13:07:29.165Z,13.38
2023-05-19T13:09:55.743Z,13.34
2023-05-19T13:12:22.284Z,13.30
2023-05-19T13:14:48.785Z,13.27
2023-05-19T13:17:15.378Z,13.28
2023-05-19T13:19:41.929Z,13.25
2023-05-19T13:22:08.405Z,13.18
2023-05-19T13:24:34.944Z,13.10
2023-05-19T13:27:01.424Z,13.06
2023-05-19T13:29:28.234Z,13.09
2023-05-19T13:31:54.740Z,13.23
2023-05-19T13:34:21.253Z,13.26
2023-05-19T13:36:47.775Z,13.31
2023-05-19T13:39:14.644Z,13.40
2023-05-19T13:41:41.118Z,13.47
2023-05-19T13:44:07.667Z,13.40
2023-05-19T13:46:44.583Z,13.43
2023-05-19T13:49:12.350Z,13.35
2023-05-19T13:51:42.260Z,13.29
2023-05-19T13:54:09.195Z,13.20
2023-05-19T13:56:36.391Z,13.11
2023-05-19T13:59:03.786Z,12.96
2023-05-19T14:01:30.422Z,12.86
2023-05-19T14:03:57.381Z,12.80
2023-05-19T14:06:24.085Z,12.71
2023-05-19T14:08:50.846Z,12.69
2023-05-19T14:11:18.535Z,12.74
2023-05-19T14:13:45.543Z,12.73
2023-05-19T14:16:12.065Z,12.68
2023-05-19T14:18:38.647Z,12.77
2023-05-19T14:21:05.793Z,12.84
2023-05-19T14:23:32.269Z,12.96
2023-05-19T14:25:58.729Z,12.99
2023-05-19T14:28:26.636Z,12.87
2023-05-19T14:30:53.275Z,12.79
2023-05-19T14:33:21.059Z,12.70
2023-05-19T14:35:48.052Z,12.58
2023-05-19T14:38:14.660Z,12.46
2023-05-19T14:40:41.183Z,12.41
2023-05-19T14:43:08.004Z,12.41
2023-05-19T14:45:34.483Z,12.38
2023-05-19T14:48:01.350Z,12.36
2023-05-19T14:50:29.321Z,12.40
2023-05-19T14:52:57.248Z,12.47
2023-05-19T14:55:23.961Z,12.53
2023-05-19T14:57:50.598Z,12.52
2023-05-19T15:00:17.298Z,12.49
2023-05-19T15:02:44.180Z,12.51
2023-05-19T15:05:10.835Z,12.57
2023-05-19T15:07:37.780Z,12.64
2023-05-19T15:10:04.782Z,12.68
2023-05-19T15:12:31.722Z,12.75
2023-05-19T15:14:58.589Z,12.82
2023-05-19T15:17:25.201Z,12.87
2023-05-19T15:19:51.906Z,12.88
2023-05-19T15:22:18.417Z,12.86
2023-05-19T15:24:44.968Z,12.82
2023-05-19T15:27:11.777Z,12.72
2023-05-19T15:29:38.259Z,12.65
2023-05-19T15:32:05.738Z,12.67
2023-05-19T15:34:32.292Z,12.66
2023-05-19T15:36:58.849Z,12.69
2023-05-19T15:39:25.453Z,12.71
2023-05-19T15:41:52.192Z,12.69
2023-05-19T15:44:19.028Z,12.69
2023-05-19T15:46:45.689Z,12.73
2023-05-19T15:49:12.802Z,12.75
2023-05-19T15:51:39.807Z,12.71
2023-05-19T15:54:06.372Z,12.71
2023-05-19T15:56:32.865Z,12.74
2023-05-19T15:58:59.392Z,12.73
2023-05-19T16:01:26.090Z,12.62
2023-05-19T16:03:52.879Z,12.45
2023-05-19T16:06:19.813Z,12.39
2023-05-19T16:08:46.438Z,12.32
2023-05-19T16:11:13.003Z,12.28
2023-05-19T16:13:39.497Z,12.24
2023-05-19T16:16:06.634Z,12.24
2023-05-19T16:18:33.549Z,12.23
2023-05-19T16:21:00.170Z,12.22
2023-05-19T16:23:26.704Z,12.23
2023-05-19T16:25:53.447Z,12.20
2023-05-19T16:28:22.351Z,12.13
2023-05-19T16:30:50.082Z,12.05
2023-05-19T16:33:16.835Z,11.98
2023-05-19T16:35:43.429Z,11.96
2023-05-19T16:38:09.905Z,11.93
2023-05-19T16:40:36.888Z,11.91
2023-05-19T16:43:03.959Z,11.87
2023-05-19T16:45:30.478Z,11.80
2023-05-19T16:47:57.128Z,11.74
2023-05-19T16:50:23.666Z,11.70
2023-05-19T16:52:50.220Z,11.71
2023-05-19T16:55:16.760Z,11.69
2023-05-19T16:57:43.350Z,11.65
2023-05-19T17:00:10.950Z,11.62
2023-05-19T17:02:37.792Z,11.60
2023-05-19T17:05:04.829Z,11.58
2023-05-19T17:07:31.401Z,11.56
2023-05-19T17:09:57.887Z,11.53
2023-05-19T17:12:24.345Z,11.50
2023-05-19T17:14:51.036Z,11.47
2023-05-19T17:17:18.072Z,11.49
2023-05-19T17:19:44.605Z,11.50
2023-05-19T17:22:11.105Z,11.52
2023-05-19T17:24:37.599Z,11.52
2023-05-19T17:27:04.631Z,11.49
2023-05-19T17:29:31.111Z,11.48
2023-05-19T17:31:57.818Z,11.46
2023-05-19T17:34:24.421Z,11.43
2023-05-19T17:36:50.939Z,11.40
2023-05-19T17:39:17.454Z,11.36
2023-05-19T17:41:44.054Z,11.31
2023-05-19T17:44:10.694Z,11.29
2023-05-19T17:46:37.317Z,11.28
2023-05-19T17:49:04.115Z,11.25
2023-05-19T17:51:30.855Z,11.21
2023-05-19T17:53:58.319Z,11.18
2023-05-19T17:56:25.561Z,11.13
2023-05-19T17:58:52.375Z,11.10
2023-05-19T18:01:19.352Z,11.07
2023-05-19T18:03:46.283Z,11.04
2023-05-19T18:06:13.446Z,11.03
2023-05-19T18:08:41.257Z,11.03
2023-05-19T18:11:08.706Z,11.03
2023-05-19T18:13:35.417Z,11.03
2023-05-19T18:16:01.908Z,11.01
2023-05-19T18:18:28.495Z,10.96
2023-05-19T18:20:54.964Z,10.94
2023-05-19T18:23:22.471Z,10.93
2023-05-19T18:25:50.376Z,10.92
2023-05-19T18:28:16.913Z,10.91
2023-05-19T18:30:43.596Z,10.89
2023-05-19T18:33:10.204Z,10.88
2023-05-19T18:35:37.288Z,10.87
2023-05-19T18:38:03.922Z,10.85
2023-05-19T18:40:30.545Z,10.82
2023-05-19T18:42:57.049Z,10.80
2023-05-19T18:45:23.517Z,10.78
2023-05-19T18:47:49.985Z,10.76
2023-05-19T18:50:16.474Z,10.73
2023-05-19T18:52:42.954Z,10.72
2023-05-19T18:55:10.129Z,10.69
2023-05-19T18:57:36.615Z,10.67
2023-05-19T19:00:03.350Z,10.65
2023-05-19T19:02:30.024Z,10.65
2023-05-19T19:04:56.780Z,10.65
2023-05-19T19:07:24.487Z,10.65
2023-05-19T19:09:50.966Z,10.65
2023-05-19T19:12:19.059Z,10.64
2023-05-19T19:14:46.844Z,10.63
2023-05-19T19:17:13.423Z,10.64
2023-05-19T19:19:40.258Z,10.64
2023-05-19T19:22:06.840Z,10.64
2023-05-19T19:24:33.302Z,10.62
2023-05-19T19:26:59.910Z,10.62
2023-05-19T19:29:26.431Z,10.62
2023-05-19T19:31:52.945Z,10.60
2023-05-19T19:34:19.549Z,10.59
2023-05-19T19:36:46.026Z,10.57
2023-05-19T19:39:12.672Z,10.56
2023-05-19T19:41:39.244Z,10.55
2023-05-19T19:44:05.952Z,10.54
2023-05-19T19:46:32.435Z,10.51
2023-05-19T19:48:58.939Z,10.50
2023-05-19T19:51:26.166Z,10.49
2023-05-19T19:53:52.662Z,10.49
2023-05-19T19:56:19.195Z,10.47
2023-05-19T19:58:45.967Z,10.46
2023-05-19T20:01:12.457Z,10.45
2023-05-19T20:03:39.285Z,10.44
2023-05-19T20:06:05.877Z,10.44
2023-05-19T20:08:32.363Z,10.43
2023-05-19T20:10:58.855Z,10.42
2023-05-19T20:13:25.547Z,10.40
2023-05-19T20:15:52.238Z,10.39
2023-05-19T20:18:19.005Z,10.37
2023-05-19T20:20:45.641Z,10.36
2023-05-19T20:23:12.172Z,10.35
2023-05-19T20:25:41.114Z,10.34
2023-05-19T20:28:11.245Z,10.34
2023-05-19T20:30:37.778Z,10.32
2023-05-19T20:33:04.605Z,10.30
2023-05-19T20:35:31.335Z,10.29
2023-05-19T20:37:57.959Z,10.27
2023-05-19T20:40:24.598Z,10.26
2023-05-19T20:42:51.105Z,10.26
2023-05-19T20:45:17.877Z,10.26
2023-05-19T20:47:44.555Z,10.27
2023-05-19T20:50:11.049Z,10.26
2023-05-19T20:52:37.522Z,10.26
2023-05-19T20:55:04.182Z,10.25
2023-05-19T20:57:30.742Z,10.25
2023-05-19T20:59:57.192Z,10.24
2023-05-19T21:02:23.701Z,10.23
2023-05-19T21:04:50.291Z,10.21
2023-05-19T21:07:16.908Z,10.20
2023-05-19T21:09:44.395Z,10.20
2023-05-19T21:12:10.892Z,10.20
2023-05-19T21:14:37.329Z,10.19
2023-05-19T21:17:04.016Z,10.16
2023-05-19T21:19:30.744Z,10.14
2023-05-19T21:21:57.234Z,10.11
2023-05-19T21:24:23.733Z,10.09
2023-05-19T21:26:50.230Z,10.08
2023-05-19T21:29:16.919Z,10.07
2023-05-19T21:31:43.409Z,10.05
2023-05-19T21:34:10.080Z,10.02
2023-05-19T21:36:36.560Z,10.00
2023-05-19T21:39:03.074Z,9.98
2023-05-19T21:41:30.079Z,9.95
2023-05-19T21:43:56.623Z,9.94
2023-05-19T21:46:23.226Z,9.93
2023-05-19T21:48:49.918Z,9.92
2023-05-19T21:51:16.387Z,9.91
2023-05-19T21:53:42.824Z,9.91
2023-05-19T21:56:09.330Z,9.89
2023-05-19T21:58:35.967Z,9.89
2023-05-19T22:01:02.472Z,9.87
2023-05-19T22:03:29.036Z,9.86
2023-05-19T22:05:56.296Z,9.85
2023-05-19T22:08:22.753Z,9.85
2023-05-19T22:10:50.599Z,9.84
2023-05-19T22:13:17.852Z,9.83
2023-05-19T22:15:45.108Z,9.81
2023-05-19T22:18:12.107Z,9.81
2023-05-19T22:20:38.830Z,9.79
2023-05-19T22:23:05.517Z,9.79
2023-05-19T22:25:32.046Z,9.78
2023-05-19T22:27:58.637Z,9.77
2023-05-19T22:30:25.134Z,9.77
2023-05-19T22:32:51.762Z,9.77
2023-05-19T22:35:18.688Z,9.77
2023-05-19T22:37:45.173Z,9.78
2023-05-19T22:40:12.113Z,9.77
2023-05-19T22:42:38.697Z,9.78
2023-05-19T22:45:05.895Z,9.79
2023-05-19T22:47:32.421Z,9.79
2023-05-19T22:49:58.913Z,9.79
2023-05-19T22:52:25.488Z,9.80
2023-05-19T22:54:52.015Z,9.80
2023-05-19T22:57:18.633Z,9.82
2023-05-19T22:59:45.160Z,9.82
2023-05-19T23:02:11.672Z,9.82
2023-05-19T23:04:38.313Z,9.83
2023-05-19T23:07:05.185Z,9.83
2023-05-19T23:09:31.654Z,9.85
2023-05-19T23:11:58.276Z,9.86
2023-05-19T23:14:24.833Z,9.87
2023-05-19T23:16:51.760Z,9.89
2023-05-19T23:19:18.333Z,9.89
2023-05-19T23:21:44.919Z,9.91
2023-05-19T23:24:11.537Z,9.92
2023-05-19T23:26:38.088Z,9.93
2023-05-19T23:29:04.863Z,9.94
2023-05-19T23:31:31.464Z,9.94
2023-05-19T23:34:01.465Z,9.94
2023-05-19T23:36:28.245Z,9.95
2023-05-19T23:38:54.813Z,9.95
2023-05-19T23:41:21.276Z,9.95
2023-05-19T23:43:47.730Z,9.97
2023-05-19T23:46:14.333Z,9.98
2023-05-19T23:48:40.927Z,10.00
2023-05-19T23:51:07.731Z,10.02
2023-05-19T23:53:34.585Z,10.03
2023-05-19T23:56:01.054Z,10.03
2023-05-19T23:58:27.563Z,10.04
